Terminal Aerodrome Forecast
Issued by NWS

Home | Current Version | Previous Version | Text Only | Print | Product List | Glossary On
Versions: 1 2 3 4 5 6 7 8 9 10 11 12 13 14 15 16 17 18 19 20 21 22 23 24 25 26 27 28 29 30 31 32
000
FTUS43 KDMX 241723
TAFMCW
TAF
KMCW 241723Z 2418/2518 35022G30KT 1SM -SN BLSN SCT008 BKN012 OVC020
     FM250200 34020G27KT 3SM BLSN VCSH SCT018 BKN028
     FM250500 33018G25KT 5SM BLSN BKN040
     FM251100 32015G22KT P6SM SCT120=

USA.gov is the U.S. government's official web portal to all federal, state and local government web resources and services.